Time;durP1;ratioP1;P1;durP2;ratioP2;P2;SDS_P1;SDS_P2;PMS_P1;PMS_P2;Temp;Humidity;BMP_temperature;BMP_pressure;BME280_temperature;BME280_humidity;BME280_pressure;Samples;Min_cycle;Max_cycle;Signal;HPM_P1;HPM_P2
2023/06/02 00:01:49;;;;;;;0.20;0.20;;;;;;;;;;5112432;28;20354;-49
2023/06/02 00:04:17;;;;;;;0.10;0.10;;;;;;;;;;5112969;28;20054;-47
2023/06/02 00:06:45;;;;;;;0.10;0.10;;;;;;;;;;5112573;28;20084;-48
2023/06/02 00:09:11;;;;;;;0.10;0.10;;;;;;;;;;5112973;28;20491;-49
2023/06/02 00:11:38;;;;;;;0.20;0.20;;;;;;;;;;5112251;28;20051;-49
2023/06/02 00:14:04;;;;;;;0.20;0.20;;;;;;;;;;5095104;28;20080;-51
2023/06/02 00:16:32;;;;;;;0.20;0.20;;;;;;;;;;5113423;28;20054;-49
2023/06/02 00:18:58;;;;;;;0.20;0.20;;;;;;;;;;5094954;28;20278;-47
2023/06/02 00:21:24;;;;;;;0.13;0.13;;;;;;;;;;5112417;28;20380;-51
2023/06/02 00:23:49;;;;;;;0.20;0.20;;;;;;;;;;5110357;28;20126;-51
2023/06/02 00:26:15;;;;;;;0.20;0.20;;;;;;;;;;5093956;27;20070;-49
2023/06/02 00:28:40;;;;;;;0.20;0.20;;;;;;;;;;5115106;27;20479;-50
2023/06/02 00:31:06;;;;;;;0.10;0.10;;;;;;;;;;5100878;27;20083;-48
2023/06/02 00:33:31;;;;;;;0.20;0.20;;;;;;;;;;5113531;28;20090;-49
2023/06/02 00:35:57;;;;;;;0.20;0.20;;;;;;;;;;5116432;28;20113;-49
2023/06/02 00:38:22;;;;;;;0.20;0.20;;;;;;;;;;5115641;28;20136;-52
2023/06/02 00:40:48;;;;;;;0.20;0.20;;;;;;;;;;5115665;28;20523;-50
2023/06/02 00:43:14;;;;;;;0.38;0.25;;;;;;;;;;5115487;28;20050;-50
2023/06/02 00:45:40;;;;;;;0.10;0.10;;;;;;;;;;5115358;28;20151;-49
2023/06/02 00:48:05;;;;;;;0.20;0.20;;;;;;;;;;5116353;28;20051;-48
2023/06/02 00:50:31;;;;;;;0.20;0.20;;;;;;;;;;5106220;27;20487;-50
2023/06/02 00:52:58;;;;;;;0.20;0.20;;;;;;;;;;5107680;28;20107;-49
2023/06/02 00:55:26;;;;;;;0.20;0.20;;;;;;;;;;5116110;28;20051;-52
2023/06/02 00:57:53;;;;;;;0.20;0.20;;;;;;;;;;5116080;27;20549;-48
2023/06/02 01:00:19;;;;;;;0.20;0.20;;;;;;;;;;5115729;28;20327;-49
2023/06/02 01:02:45;;;;;;;0.20;0.20;;;;;;;;;;5115891;28;20079;-48
2023/06/02 01:05:12;;;;;;;0.20;0.20;;;;;;;;;;5115395;28;20146;-48
2023/06/02 01:07:44;;;;;;;0.20;0.20;;;;;;;;;;5097563;28;20043;-48
2023/06/02 01:10:11;;;;;;;0.20;0.20;;;;;;;;;;5093692;28;20134;-51
2023/06/02 01:12:36;;;;;;;0.20;0.20;;;;;;;;;;5085384;28;20078;-50
2023/06/02 01:15:02;;;;;;;0.20;0.20;;;;;;;;;;5115952;28;20479;-50
2023/06/02 01:17:30;;;;;;;0.40;0.40;;;;;;;;;;5116641;28;20415;-49
2023/06/02 01:20:10;;;;;;;0.10;0.10;;;;;;;;;;5096779;28;20442;-48
2023/06/02 01:22:43;;;;;;;0.15;0.15;;;;;;;;;;5115442;28;20043;-52
2023/06/02 01:25:25;;;;;;;0.10;0.10;;;;;;;;;;5109845;27;20054;-49
2023/06/02 01:27:51;;;;;;;0.20;0.20;;;;;;;;;;5135959;27;20043;-51
2023/06/02 01:30:17;;;;;;;0.20;0.20;;;;;;;;;;5100739;28;20151;-49
2023/06/02 01:32:49;;;;;;;0.43;0.38;;;;;;;;;;5085488;28;20497;-51
2023/06/02 01:35:15;;;;;;;0.20;0.20;;;;;;;;;;5098449;28;20146;-49
2023/06/02 01:37:43;;;;;;;0.20;0.20;;;;;;;;;;5094371;28;20121;-51
2023/06/02 01:40:10;;;;;;;0.20;0.20;;;;;;;;;;5082649;28;20366;-49
2023/06/02 01:42:36;;;;;;;0.20;0.20;;;;;;;;;;5114762;28;20100;-47
2023/06/02 01:45:02;;;;;;;0.20;0.20;;;;;;;;;;5115250;28;20047;-51
2023/06/02 01:47:28;;;;;;;0.20;0.20;;;;;;;;;;5115111;28;20043;-50
2023/06/02 01:49:54;;;;;;;0.20;0.20;;;;;;;;;;5110811;27;20155;-48
2023/06/02 01:52:19;;;;;;;0.20;0.20;;;;;;;;;;5099778;28;20057;-48
2023/06/02 01:54:46;;;;;;;0.20;0.20;;;;;;;;;;5114817;28;20440;-50
2023/06/02 01:57:11;;;;;;;0.20;0.20;;;;;;;;;;5119501;27;20051;-49
2023/06/02 01:59:37;;;;;;;0.20;0.20;;;;;;;;;;5132046;27;20075;-50
2023/06/02 02:02:03;;;;;;;0.20;0.20;;;;;;;;;;5096624;28;20055;-48
2023/06/02 02:04:29;;;;;;;0.20;0.20;;;;;;;;;;5114489;28;20438;-50
2023/06/02 02:06:55;;;;;;;0.10;0.10;;;;;;;;;;5114660;28;20051;-51
2023/06/02 02:09:21;;;;;;;0.20;0.20;;;;;;;;;;5114924;28;20071;-50
2023/06/02 02:11:46;;;;;;;0.10;0.10;;;;;;;;;;5094600;28;20054;-48
2023/06/02 02:14:13;;;;;;;0.20;0.20;;;;;;;;;;5114099;28;20062;-50
2023/06/02 02:16:38;;;;;;;0.20;0.20;;;;;;;;;;5114933;28;20419;-51
2023/06/02 02:19:04;;;;;;;0.10;0.10;;;;;;;;;;5115628;28;20546;-50
2023/06/02 02:21:30;;;;;;;0.20;0.20;;;;;;;;;;5114179;28;20055;-51
2023/06/02 02:23:55;;;;;;;0.20;0.20;;;;;;;;;;5113702;28;20043;-48
2023/06/02 02:26:21;;;;;;;0.20;0.20;;;;;;;;;;5114030;28;20051;-52
2023/06/02 02:28:47;;;;;;;0.20;0.20;;;;;;;;;;5096778;28;20070;-50
2023/06/02 02:31:12;;;;;;;0.13;0.13;;;;;;;;;;5114029;28;20092;-51
2023/06/02 02:33:38;;;;;;;0.20;0.20;;;;;;;;;;5092903;28;20146;-49
2023/06/02 02:36:04;;;;;;;0.10;0.10;;;;;;;;;;5062061;28;20407;-50
2023/06/02 02:38:30;;;;;;;0.20;0.20;;;;;;;;;;5085690;28;20047;-48
2023/06/02 02:40:55;;;;;;;0.20;0.20;;;;;;;;;;5091276;27;20654;-53
2023/06/02 02:43:21;;;;;;;0.20;0.20;;;;;;;;;;5096592;28;20130;-46
2023/06/02 02:45:47;;;;;;;0.20;0.20;;;;;;;;;;5098317;28;20059;-44
2023/06/02 02:48:13;;;;;;;0.20;0.20;;;;;;;;;;5108000;28;20470;-46
2023/06/02 02:50:38;;;;;;;0.20;0.20;;;;;;;;;;5102139;27;20035;-45
2023/06/02 02:53:04;;;;;;;0.20;0.20;;;;;;;;;;5102529;28;20552;-50
2023/06/02 02:55:32;;;;;;;0.20;0.20;;;;;;;;;;5114002;28;20280;-50
2023/06/02 02:57:58;;;;;;;;;;;;;;;;;;5124990;27;20565;-48
2023/06/02 03:00:23;;;;;;;0.20;0.20;;;;;;;;;;5117419;27;20010;-50
2023/06/02 03:02:49;;;;;;;0.20;0.20;;;;;;;;;;5100174;28;20137;-49
2023/06/02 03:05:14;;;;;;;0.20;0.20;;;;;;;;;;5113101;28;20487;-51
2023/06/02 03:07:40;;;;;;;0.20;0.20;;;;;;;;;;5113300;28;20050;-50
2023/06/02 03:10:06;;;;;;;0.20;0.20;;;;;;;;;;5113781;28;20559;-48
2023/06/02 03:12:32;;;;;;;0.20;0.20;;;;;;;;;;5112864;28;20047;-48
2023/06/02 03:14:57;;;;;;;0.20;0.20;;;;;;;;;;5107574;28;20084;-50
2023/06/02 03:17:23;;;;;;;0.20;0.20;;;;;;;;;;5105997;28;20558;-50
2023/06/02 03:19:49;;;;;;;0.20;0.20;;;;;;;;;;5111773;28;20046;-51
2023/06/02 03:22:14;;;;;;;0.20;0.20;;;;;;;;;;5110403;28;20062;-49
2023/06/02 03:24:40;;;;;;;0.20;0.20;;;;;;;;;;5109974;27;20061;-48
2023/06/02 03:27:13;;;;;;;0.20;0.20;;;;;;;;;;5109010;28;20615;-48
2023/06/02 03:29:39;;;;;;;0.20;0.20;;;;;;;;;;5112876;28;20096;-48
2023/06/02 03:32:12;;;;;;;0.20;0.20;;;;;;;;;;5094640;28;20085;-49
2023/06/02 03:34:39;;;;;;;0.20;0.20;;;;;;;;;;5113135;28;20090;-50
2023/06/02 03:37:07;;;;;;;0.20;0.20;;;;;;;;;;5113478;28;20071;-49
2023/06/02 03:39:33;;;;;;;0.20;0.20;;;;;;;;;;5093697;28;20051;-49
2023/06/02 03:41:59;;;;;;;0.20;0.20;;;;;;;;;;5075294;28;20079;-48
2023/06/02 03:44:24;;;;;;;0.20;0.20;;;;;;;;;;5111936;28;20130;-50
2023/06/02 03:46:50;;;;;;;0.20;0.20;;;;;;;;;;5094328;28;20125;-50
2023/06/02 03:49:16;;;;;;;0.20;0.20;;;;;;;;;;5113584;28;20347;-49
2023/06/02 03:51:43;;;;;;;0.20;0.20;;;;;;;;;;5112909;28;20055;-47
2023/06/02 03:54:09;;;;;;;0.20;0.20;;;;;;;;;;5113273;27;20159;-48
2023/06/02 03:56:34;;;;;;;0.20;0.20;;;;;;;;;;5113778;28;20153;-48
2023/06/02 03:59:00;;;;;;;0.20;0.20;;;;;;;;;;5132592;27;20042;-48
2023/06/02 04:01:25;;;;;;;0.20;0.20;;;;;;;;;;5099538;27;20079;-48
2023/06/02 04:03:51;;;;;;;0.20;0.20;;;;;;;;;;5109710;28;20043;-49
2023/06/02 04:06:16;;;;;;;0.10;0.10;;;;;;;;;;5116959;28;20047;-48
2023/06/02 04:08:42;;;;;;;0.13;0.13;;;;;;;;;;5116920;28;20250;-49
2023/06/02 04:11:08;;;;;;;0.20;0.20;;;;;;;;;;5101929;28;20039;-47
2023/06/02 04:13:33;;;;;;;0.20;0.20;;;;;;;;;;5107282;28;20039;-48
2023/06/02 04:15:59;;;;;;;0.15;0.15;;;;;;;;;;5116875;28;20051;-50
2023/06/02 04:18:26;;;;;;;0.20;0.20;;;;;;;;;;5116643;28;20043;-49
2023/06/02 04:20:51;;;;;;;0.20;0.20;;;;;;;;;;5085274;28;20462;-47
2023/06/02 04:23:17;;;;;;;0.20;0.20;;;;;;;;;;5110537;28;20487;-49
2023/06/02 04:25:42;;;;;;;0.20;0.20;;;;;;;;;;5098921;28;20051;-48
2023/06/02 04:28:08;;;;;;;0.20;0.20;;;;;;;;;;5096036;28;20108;-49
2023/06/02 04:30:36;;;;;;;0.10;0.10;;;;;;;;;;5096030;28;20490;-49
2023/06/02 04:33:03;;;;;;;0.15;0.15;;;;;;;;;;5101620;28;20040;-49
2023/06/02 04:35:28;;;;;;;0.20;0.20;;;;;;;;;;5106354;28;20081;-49
2023/06/02 04:37:54;;;;;;;0.20;0.20;;;;;;;;;;5096295;28;20047;-49
2023/06/02 04:40:19;;;;;;;0.20;0.20;;;;;;;;;;5110197;28;20487;-50
2023/06/02 04:42:45;;;;;;;0.20;0.20;;;;;;;;;;5115855;28;20402;-51
2023/06/02 04:45:12;;;;;;;0.20;0.20;;;;;;;;;;5117063;28;20486;-51
2023/06/02 04:47:38;;;;;;;0.20;0.20;;;;;;;;;;5116624;28;20490;-50
2023/06/02 04:50:06;;;;;;;0.20;0.20;;;;;;;;;;5116724;28;20608;-50
2023/06/02 04:52:31;;;;;;;0.20;0.20;;;;;;;;;;5115272;28;20449;-47
2023/06/02 04:54:57;;;;;;;0.10;0.10;;;;;;;;;;5116976;28;20047;-51
2023/06/02 04:57:22;;;;;;;0.20;0.20;;;;;;;;;;5116263;27;20051;-52
2023/06/02 04:59:48;;;;;;;0.20;0.20;;;;;;;;;;5116660;28;20043;-48
2023/06/02 05:02:13;;;;;;;0.20;0.20;;;;;;;;;;5116302;28;20043;-47
2023/06/02 05:04:39;;;;;;;0.20;0.20;;;;;;;;;;5113325;28;20440;-48
2023/06/02 05:07:06;;;;;;;0.20;0.20;;;;;;;;;;5115179;28;20104;-50
2023/06/02 05:09:32;;;;;;;0.20;0.20;;;;;;;;;;5114611;28;20483;-51
2023/06/02 05:11:58;;;;;;;0.20;0.20;;;;;;;;;;5113707;28;20058;-49
2023/06/02 05:14:24;;;;;;;0.20;0.20;;;;;;;;;;5115842;27;20119;-50
2023/06/02 05:16:50;;;;;;;0.20;0.20;;;;;;;;;;5111952;28;20515;-49
2023/06/02 05:19:15;;;;;;;0.20;0.20;;;;;;;;;;5109823;28;20349;-49
2023/06/02 05:21:41;;;;;;;0.20;0.20;;;;;;;;;;5106997;27;20040;-49
2023/06/02 05:24:06;;;;;;;0.20;0.20;;;;;;;;;;5112589;27;20524;-48
2023/06/02 05:26:32;;;;;;;0.20;0.20;;;;;;;;;;5107093;28;20099;-52
2023/06/02 05:28:57;;;;;;;0.20;0.20;;;;;;;;;;5103401;28;20305;-50
2023/06/02 05:31:23;;;;;;;0.20;0.20;;;;;;;;;;5109769;28;20051;-51
2023/06/02 05:33:49;;;;;;;0.20;0.20;;;;;;;;;;5106505;28;20433;-48
2023/06/02 05:36:14;;;;;;;0.25;0.25;;;;;;;;;;5109086;28;20085;-49
2023/06/02 05:38:42;;;;;;;0.20;0.20;;;;;;;;;;5108797;28;20047;-50
2023/06/02 05:41:08;;;;;;;0.10;0.10;;;;;;;;;;5087778;28;20079;-48
2023/06/02 05:43:34;;;;;;;0.20;0.20;;;;;;;;;;5090108;28;20047;-48
2023/06/02 05:45:59;;;;;;;0.20;0.20;;;;;;;;;;5098338;28;20431;-47
2023/06/02 05:48:25;;;;;;;0.10;0.10;;;;;;;;;;5102908;28;20376;-50
2023/06/02 05:50:51;;;;;;;0.20;0.20;;;;;;;;;;5110505;28;20493;-51
2023/06/02 05:53:16;;;;;;;0.15;0.15;;;;;;;;;;5077704;28;20491;-50
2023/06/02 05:55:42;;;;;;;0.20;0.20;;;;;;;;;;5108911;28;20054;-48
2023/06/02 05:58:07;;;;;;;0.20;0.20;;;;;;;;;;5102998;27;20039;-49
2023/06/02 06:00:33;;;;;;;0.20;0.20;;;;;;;;;;5096239;28;20082;-47
2023/06/02 06:02:59;;;;;;;0.20;0.20;;;;;;;;;;5105496;28;20070;-49
2023/06/02 06:05:25;;;;;;;0.20;0.20;;;;;;;;;;5105738;28;20120;-48
2023/06/02 06:07:50;;;;;;;0.20;0.20;;;;;;;;;;5109172;28;20039;-50
2023/06/02 06:10:16;;;;;;;0.10;0.10;;;;;;;;;;5105698;28;20357;-50
2023/06/02 06:12:41;;;;;;;0.20;0.20;;;;;;;;;;5089297;28;20043;-49
2023/06/02 06:15:07;;;;;;;0.10;0.10;;;;;;;;;;5104268;28;20104;-50
2023/06/02 06:17:33;;;;;;;0.10;0.10;;;;;;;;;;5097012;28;20046;-49
2023/06/02 06:19:58;;;;;;;0.20;0.20;;;;;;;;;;5103985;28;20092;-49
2023/06/02 06:22:24;;;;;;;0.20;0.20;;;;;;;;;;5115887;27;20084;-48
2023/06/02 06:24:50;;;;;;;0.20;0.20;;;;;;;;;;5101165;27;20050;-52
2023/06/02 06:27:15;;;;;;;0.20;0.20;;;;;;;;;;5106483;28;20040;-47
2023/06/02 06:29:41;;;;;;;0.10;0.10;;;;;;;;;;5105912;28;20100;-48
2023/06/02 06:32:06;;;;;;;0.20;0.20;;;;;;;;;;5098961;28;20058;-50
2023/06/02 06:34:32;;;;;;;0.20;0.20;;;;;;;;;;5085328;27;20054;-52
2023/06/02 06:36:57;;;;;;;0.15;0.15;;;;;;;;;;5106555;27;20073;-48
2023/06/02 06:39:23;;;;;;;0.40;0.40;;;;;;;;;;5098135;28;20058;-50
2023/06/02 06:41:48;;;;;;;0.20;0.20;;;;;;;;;;5100566;27;20408;-51
2023/06/02 06:44:14;;;;;;;0.20;0.20;;;;;;;;;;5097590;27;20131;-52
2023/06/02 06:46:40;;;;;;;0.15;0.15;;;;;;;;;;5098492;28;20456;-50
2023/06/02 06:49:05;;;;;;;0.20;0.20;;;;;;;;;;5092817;27;20540;-53
2023/06/02 06:51:31;;;;;;;0.20;0.20;;;;;;;;;;5094589;28;20097;-51
2023/06/02 06:53:57;;;;;;;0.20;0.20;;;;;;;;;;5093607;27;20077;-51
2023/06/02 06:56:22;;;;;;;0.20;0.20;;;;;;;;;;5084913;28;20047;-54
2023/06/02 06:58:48;;;;;;;0.20;0.20;;;;;;;;;;5090323;27;20506;-50
2023/06/02 07:01:13;;;;;;;0.20;0.20;;;;;;;;;;5086508;28;20446;-53
2023/06/02 07:03:39;;;;;;;0.20;0.20;;;;;;;;;;5073179;27;20640;-49
2023/06/02 07:06:07;;;;;;;0.20;0.20;;;;;;;;;;5084641;27;20054;-50
2023/06/02 07:08:35;;;;;;;0.20;0.20;;;;;;;;;;5079251;27;20207;-52
2023/06/02 07:11:00;;;;;;;0.30;0.30;;;;;;;;;;5075610;28;20103;-47
2023/06/02 07:13:27;;;;;;;0.20;0.20;;;;;;;;;;5088540;28;20039;-48
2023/06/02 07:15:52;;;;;;;0.20;0.20;;;;;;;;;;5092758;27;20070;-51
2023/06/02 07:18:18;;;;;;;0.20;0.20;;;;;;;;;;5089083;28;20070;-50
2023/06/02 07:20:47;;;;;;;0.25;0.25;;;;;;;;;;5091109;28;20518;-53
2023/06/02 07:23:12;;;;;;;0.30;0.30;;;;;;;;;;5087281;27;20080;-49
2023/06/02 07:25:38;;;;;;;0.20;0.20;;;;;;;;;;5092733;27;20043;-50
2023/06/02 07:28:03;;;;;;;0.30;0.30;;;;;;;;;;5096892;28;20061;-51
2023/06/02 07:30:31;;;;;;;0.20;0.20;;;;;;;;;;5092275;28;20820;-51
2023/06/02 07:32:57;;;;;;;0.10;0.10;;;;;;;;;;5095024;27;20495;-50
2023/06/02 07:35:22;;;;;;;0.20;0.20;;;;;;;;;;5089177;27;20258;-49
2023/06/02 07:37:50;;;;;;;0.20;0.20;;;;;;;;;;5082901;28;20051;-50
2023/06/02 07:40:15;;;;;;;0.20;0.20;;;;;;;;;;5100979;27;20095;-48
2023/06/02 07:42:41;;;;;;;0.20;0.20;;;;;;;;;;5108809;28;20047;-49
2023/06/02 07:45:06;;;;;;;0.20;0.20;;;;;;;;;;5108358;27;20475;-49
2023/06/02 07:47:32;;;;;;;0.10;0.10;;;;;;;;;;5101043;27;20046;-51
2023/06/02 07:49:57;;;;;;;0.10;0.10;;;;;;;;;;5106119;28;20289;-47
2023/06/02 07:52:23;;;;;;;0.10;0.10;;;;;;;;;;5098864;27;20357;-56
2023/06/02 07:54:49;;;;;;;0.43;0.43;;;;;;;;;;5094480;27;20313;-48
2023/06/02 07:57:14;;;;;;;0.10;0.10;;;;;;;;;;5098154;27;20262;-49
2023/06/02 07:59:40;;;;;;;0.30;0.30;;;;;;;;;;5097152;28;20498;-49
2023/06/02 08:02:05;;;;;;;0.20;0.20;;;;;;;;;;5089061;27;20565;-49
2023/06/02 08:04:31;;;;;;;0.20;0.20;;;;;;;;;;5095828;28;20419;-49
2023/06/02 08:06:57;;;;;;;0.20;0.20;;;;;;;;;;5080785;28;20043;-51
2023/06/02 08:09:23;;;;;;;0.20;0.20;;;;;;;;;;5086693;28;21433;-50
2023/06/02 08:11:49;;;;;;;0.20;0.20;;;;;;;;;;5092587;28;20576;-49
2023/06/02 08:14:15;;;;;;;0.20;0.20;;;;;;;;;;5089786;27;20044;-51
2023/06/02 08:16:41;;;;;;;0.20;0.20;;;;;;;;;;5076468;28;20390;-51
2023/06/02 08:19:23;;;;;;;0.20;0.20;;;;;;;;;;5092173;28;20196;-49
2023/06/02 08:21:49;;;;;;;0.20;0.20;;;;;;;;;;5099451;27;20269;-51
2023/06/02 08:24:15;;;;;;;0.20;0.20;;;;;;;;;;5095367;28;20528;-51
2023/06/02 08:26:41;;;;;;;0.20;0.20;;;;;;;;;;5081667;28;20096;-52
2023/06/02 08:29:08;;;;;;;0.20;0.20;;;;;;;;;;5097401;28;20166;-49
2023/06/02 08:31:35;;;;;;;0.10;0.10;;;;;;;;;;5087560;28;20113;-51
2023/06/02 08:34:02;;;;;;;0.20;0.20;;;;;;;;;;5091463;28;20402;-51
2023/06/02 08:36:29;;;;;;;0.22;0.22;;;;;;;;;;5094869;28;23055;-48
2023/06/02 08:38:55;;;;;;;0.10;0.10;;;;;;;;;;5093681;28;20047;-52
2023/06/02 08:41:21;;;;;;;0.20;0.20;;;;;;;;;;5093607;28;20806;-49
2023/06/02 08:43:46;;;;;;;0.20;0.20;;;;;;;;;;5097549;28;20099;-48
2023/06/02 08:46:12;;;;;;;0.20;0.20;;;;;;;;;;5109813;28;20058;-47
2023/06/02 08:48:39;;;;;;;0.20;0.20;;;;;;;;;;5078924;28;20091;-50
2023/06/02 08:51:07;;;;;;;0.10;0.10;;;;;;;;;;5092060;27;20051;-52
2023/06/02 08:53:33;;;;;;;0.10;0.10;;;;;;;;;;5102633;28;20539;-60
2023/06/02 08:55:58;;;;;;;0.20;0.20;;;;;;;;;;5107362;28;20126;-52
2023/06/02 08:58:28;;;;;;;0.20;0.20;;;;;;;;;;5106346;27;20883;-51
2023/06/02 09:00:53;;;;;;;0.20;0.20;;;;;;;;;;5091972;28;20417;-50
2023/06/02 09:03:19;;;;;;;0.20;0.20;;;;;;;;;;5094353;27;20493;-50
2023/06/02 09:06:26;;;;;;;0.20;0.20;;;;;;;;;;5085402;28;20362;-50
2023/06/02 09:08:54;;;;;;;0.20;0.20;;;;;;;;;;5084682;28;20097;-58
2023/06/02 09:11:19;;;;;;;0.20;0.20;;;;;;;;;;5100476;27;20327;-54
2023/06/02 09:13:45;;;;;;;0.20;0.20;;;;;;;;;;5086983;28;20086;-48
2023/06/02 09:16:10;;;;;;;0.20;0.20;;;;;;;;;;5117260;27;20059;-48
2023/06/02 09:18:36;;;;;;;0.20;0.20;;;;;;;;;;5105310;27;20097;-52
2023/06/02 09:21:01;;;;;;;0.20;0.20;;;;;;;;;;5105857;28;20314;-52
2023/06/02 09:23:43;;;;;;;0.20;0.20;;;;;;;;;;5106228;27;20051;-49
2023/06/02 09:26:30;;;;;;;0.20;0.20;;;;;;;;;;5105864;28;20051;-52
2023/06/02 09:29:13;;;;;;;0.20;0.20;;;;;;;;;;5089105;28;20042;-49
2023/06/02 09:31:54;;;;;;;0.20;0.20;;;;;;;;;;5098799;27;20326;-50
2023/06/02 09:34:21;;;;;;;0.10;0.10;;;;;;;;;;5097657;28;20047;-48
2023/06/02 09:36:47;;;;;;;0.20;0.20;;;;;;;;;;5070640;27;20505;-48
2023/06/02 09:39:13;;;;;;;0.20;0.20;;;;;;;;;;5087478;28;20620;-50
2023/06/02 09:41:39;;;;;;;0.20;0.20;;;;;;;;;;5071175;28;20044;-51
2023/06/02 09:44:12;;;;;;;0.20;0.20;;;;;;;;;;5096099;27;20047;-48
2023/06/02 09:46:38;;;;;;;0.20;0.20;;;;;;;;;;5094502;28;20093;-50
2023/06/02 09:49:04;;;;;;;0.20;0.20;;;;;;;;;;5098383;28;20302;-47
2023/06/02 09:51:30;;;;;;;0.20;0.20;;;;;;;;;;5103869;28;20144;-48
2023/06/02 09:53:56;;;;;;;0.13;0.13;;;;;;;;;;5106167;28;20043;-51
2023/06/02 09:56:22;;;;;;;0.20;0.20;;;;;;;;;;5101221;28;20478;-49
2023/06/02 09:58:48;;;;;;;0.20;0.20;;;;;;;;;;5089204;28;20058;-51
2023/06/02 10:01:15;;;;;;;0.20;0.20;;;;;;;;;;5083982;28;20566;-49
2023/06/02 10:03:42;;;;;;;0.20;0.20;;;;;;;;;;5088222;28;20178;-49
2023/06/02 10:06:16;;;;;;;0.20;0.20;;;;;;;;;;5097218;27;20058;-49
2023/06/02 10:09:02;;;;;;;0.20;0.20;;;;;;;;;;5083776;27;20490;-49
2023/06/02 10:11:35;;;;;;;0.10;0.10;;;;;;;;;;5088637;28;20039;-48
2023/06/02 10:14:20;;;;;;;0.20;0.20;;;;;;;;;;5105707;28;20050;-48
2023/06/02 10:16:58;;;;;;;0.20;0.20;;;;;;;;;;5074228;28;20488;-50
2023/06/02 10:19:35;;;;;;;0.10;0.10;;;;;;;;;;5097747;28;20083;-51
2023/06/02 10:22:20;;;;;;;0.20;0.20;;;;;;;;;;5103486;27;20134;-51
2023/06/02 10:24:52;;;;;;;0.20;0.20;;;;;;;;;;5081703;28;20058;-51
2023/06/02 10:27:27;;;;;;;0.20;0.20;;;;;;;;;;5098447;28;20088;-48
2023/06/02 10:29:53;;;;;;;0.20;0.20;;;;;;;;;;5081288;28;20035;-50
2023/06/02 10:32:21;;;;;;;0.20;0.20;;;;;;;;;;5098208;27;20047;-52
2023/06/02 10:34:48;;;;;;;0.13;0.13;;;;;;;;;;5091410;28;20051;-53
2023/06/02 10:37:14;;;;;;;0.20;0.20;;;;;;;;;;5097202;27;20055;-52
2023/06/02 10:39:42;;;;;;;0.20;0.20;;;;;;;;;;5080100;28;20079;-49
2023/06/02 10:42:10;;;;;;;0.10;0.10;;;;;;;;;;5086152;28;20426;-51
2023/06/02 10:44:35;;;;;;;0.20;0.20;;;;;;;;;;5096345;27;20542;-50
2023/06/02 10:47:21;;;;;;;0.40;0.40;;;;;;;;;;5088557;27;20051;-49
2023/06/02 10:49:55;;;;;;;0.30;0.30;;;;;;;;;;5080423;27;20054;-53
2023/06/02 10:52:21;;;;;;;0.20;0.20;;;;;;;;;;5075036;27;20050;-53
2023/06/02 10:55:06;;;;;;;0.20;0.20;;;;;;;;;;5079033;28;20404;-51
2023/06/02 10:57:52;;;;;;;0.20;0.20;;;;;;;;;;5086515;27;20471;-58
2023/06/02 11:00:35;;;;;;;0.20;0.20;;;;;;;;;;5086779;28;20624;-48
2023/06/02 11:03:01;;;;;;;0.20;0.20;;;;;;;;;;5103964;28;20051;-50
2023/06/02 11:05:28;;;;;;;0.10;0.10;;;;;;;;;;5076315;28;20278;-51
2023/06/02 11:08:14;;;;;;;0.20;0.20;;;;;;;;;;5094039;27;20055;-52
2023/06/02 11:10:48;;;;;;;0.10;0.10;;;;;;;;;;5082188;27;20610;-55
2023/06/02 11:13:16;;;;;;;0.20;0.20;;;;;;;;;;5082205;27;20531;-53
2023/06/02 11:16:01;;;;;;;0.20;0.20;;;;;;;;;;5080300;28;20043;-49
2023/06/02 11:21:03;;;;;;;0.20;0.20;;;;;;;;;;5136579;27;20209;-47
2023/06/02 11:23:29;;;;;;;0.10;0.10;;;;;;;;;;5144552;27;20098;-47
2023/06/02 11:26:11;;;;;;;0.20;0.20;;;;;;;;;;5132981;27;20145;-48
2023/06/02 11:28:36;;;;;;;0.20;0.20;;;;;;;;;;5135603;27;20435;-46
2023/06/02 11:31:04;;;;;;;0.20;0.20;;;;;;;;;;5140987;27;20053;-46
2023/06/02 11:33:33;;;;;;;0.15;0.15;;;;;;;;;;5118590;27;20118;-48
2023/06/02 11:35:58;;;;;;;0.20;0.20;;;;;;;;;;5116803;27;20483;-47
2023/06/02 11:38:31;;;;;;;0.20;0.20;;;;;;;;;;5136600;27;20147;-48
2023/06/02 11:41:08;;;;;;;0.20;0.20;;;;;;;;;;5128618;27;20176;-47
2023/06/02 11:43:33;;;;;;;0.20;0.20;;;;;;;;;;5133280;27;20065;-46
2023/06/02 11:46:08;;;;;;;0.20;0.20;;;;;;;;;;5108047;27;20402;-50
2023/06/02 11:48:37;;;;;;;0.20;0.20;;;;;;;;;;5116352;27;20054;-45
2023/06/02 11:51:05;;;;;;;0.20;0.20;;;;;;;;;;5140178;27;20498;-48
2023/06/02 11:53:31;;;;;;;0.10;0.10;;;;;;;;;;5126980;27;20063;-49
2023/06/02 11:55:56;;;;;;;0.20;0.20;;;;;;;;;;5143493;27;20043;-47
2023/06/02 11:58:23;;;;;;;0.20;0.20;;;;;;;;;;5147940;27;20591;-48
2023/06/02 12:00:49;;;;;;;0.20;0.20;;;;;;;;;;5120309;27;20094;-56
2023/06/02 12:03:15;;;;;;;0.20;0.20;;;;;;;;;;5118878;27;20261;-48
2023/06/02 12:05:43;;;;;;;0.13;0.13;;;;;;;;;;5138682;27;20049;-47
2023/06/02 12:08:10;;;;;;;0.20;0.20;;;;;;;;;;5142245;27;20066;-47
2023/06/02 12:10:36;;;;;;;0.20;0.20;;;;;;;;;;5145090;27;20050;-47
2023/06/02 12:13:02;;;;;;;0.20;0.20;;;;;;;;;;5129418;27;20098;-48
2023/06/02 12:15:32;;;;;;;0.20;0.20;;;;;;;;;;5142284;27;20525;-48
2023/06/02 12:18:02;;;;;;;0.20;0.20;;;;;;;;;;5131046;27;20055;-49
2023/06/02 12:20:39;;;;;;;0.20;0.20;;;;;;;;;;5139936;27;20150;-47
2023/06/02 12:23:06;;;;;;;0.10;0.10;;;;;;;;;;5143006;27;20070;-47
2023/06/02 12:25:32;;;;;;;0.17;0.17;;;;;;;;;;5123138;27;20105;-47
2023/06/02 12:28:03;;;;;;;0.20;0.20;;;;;;;;;;5143671;27;20051;-47
2023/06/02 12:30:29;;;;;;;0.20;0.20;;;;;;;;;;5134851;27;20089;-50
2023/06/02 12:33:03;;;;;;;0.10;0.10;;;;;;;;;;5128197;27;20877;-47
2023/06/02 12:35:29;;;;;;;0.20;0.20;;;;;;;;;;5109454;27;20042;-48
2023/06/02 12:37:54;;;;;;;0.20;0.20;;;;;;;;;;5127341;27;21361;-55
2023/06/02 12:40:20;;;;;;;0.20;0.20;;;;;;;;;;5135945;27;20054;-47
2023/06/02 12:42:46;;;;;;;0.20;0.20;;;;;;;;;;5139015;27;20054;-48
2023/06/02 12:45:11;;;;;;;0.20;0.20;;;;;;;;;;5138523;27;20046;-47
2023/06/02 12:47:37;;;;;;;0.20;0.20;;;;;;;;;;5138870;27;20134;-46
2023/06/02 12:50:05;;;;;;;0.20;0.20;;;;;;;;;;5133204;27;20051;-47
2023/06/02 12:52:32;;;;;;;0.10;0.10;;;;;;;;;;5118638;28;20051;-48
2023/06/02 12:54:57;;;;;;;0.20;0.20;;;;;;;;;;5118172;28;20460;-47
2023/06/02 12:57:23;;;;;;;0.20;0.20;;;;;;;;;;5118286;28;20051;-48
2023/06/02 12:59:48;;;;;;;0.13;0.13;;;;;;;;;;5120084;27;20472;-46
2023/06/02 13:02:14;;;;;;;0.20;0.20;;;;;;;;;;5139251;27;20051;-47
2023/06/02 13:04:40;;;;;;;0.20;0.20;;;;;;;;;;5138266;27;20398;-46
2023/06/02 13:07:06;;;;;;;0.20;0.20;;;;;;;;;;5138589;27;20383;-45
2023/06/02 13:09:32;;;;;;;0.20;0.20;;;;;;;;;;5138479;27;20078;-47
2023/06/02 13:11:57;;;;;;;0.20;0.20;;;;;;;;;;5138514;27;20043;-49
2023/06/02 13:14:23;;;;;;;0.20;0.20;;;;;;;;;;5139586;27;20455;-49
2023/06/02 13:16:48;;;;;;;0.20;0.20;;;;;;;;;;5139196;27;20440;-49
2023/06/02 13:19:14;;;;;;;0.20;0.20;;;;;;;;;;5138828;27;20069;-50
2023/06/02 13:21:41;;;;;;;0.20;0.20;;;;;;;;;;5138342;27;20042;-50
2023/06/02 13:24:06;;;;;;;0.13;0.13;;;;;;;;;;5139296;27;20046;-51
2023/06/02 13:26:32;;;;;;;0.10;0.10;;;;;;;;;;5139314;27;20046;-51
2023/06/02 13:28:57;;;;;;;0.20;0.20;;;;;;;;;;5138506;27;20054;-46
2023/06/02 13:31:23;;;;;;;0.20;0.20;;;;;;;;;;5120993;27;20070;-48
2023/06/02 13:33:49;;;;;;;0.17;0.17;;;;;;;;;;5118296;28;20394;-47
2023/06/02 13:36:14;;;;;;;0.20;0.20;;;;;;;;;;5117730;28;20107;-48
2023/06/02 13:38:42;;;;;;;0.20;0.20;;;;;;;;;;5118214;28;20403;-47
2023/06/02 13:41:07;;;;;;;0.10;0.10;;;;;;;;;;5118134;27;20075;-49
2023/06/02 13:43:33;;;;;;;0.10;0.10;;;;;;;;;;5116440;27;20432;-48
2023/06/02 13:45:58;;;;;;;0.20;0.20;;;;;;;;;;5118246;28;20565;-50
2023/06/02 13:48:24;;;;;;;0.20;0.20;;;;;;;;;;5117354;28;20103;-50
2023/06/02 13:50:49;;;;;;;0.10;0.10;;;;;;;;;;5132586;27;20083;-48
2023/06/02 13:53:15;;;;;;;0.20;0.20;;;;;;;;;;5138830;27;20505;-50
2023/06/02 13:55:41;;;;;;;0.20;0.20;;;;;;;;;;5139473;27;20047;-46
2023/06/02 13:58:07;;;;;;;0.20;0.20;;;;;;;;;;5139168;27;20743;-51
2023/06/02 14:00:32;;;;;;;0.20;0.20;;;;;;;;;;5136720;27;20758;-48
2023/06/02 14:02:58;;;;;;;0.20;0.20;;;;;;;;;;5119962;27;20407;-49
2023/06/02 14:05:24;;;;;;;0.20;0.20;;;;;;;;;;5138849;27;20535;-47
2023/06/02 14:07:49;;;;;;;0.20;0.20;;;;;;;;;;5138908;27;20073;-46
2023/06/02 14:10:15;;;;;;;0.20;0.20;;;;;;;;;;5138615;27;20181;-48
2023/06/02 14:12:40;;;;;;;0.20;0.20;;;;;;;;;;5138595;27;20046;-48
2023/06/02 14:15:06;;;;;;;0.10;0.10;;;;;;;;;;5138872;27;20410;-48
2023/06/02 14:17:32;;;;;;;0.20;0.20;;;;;;;;;;5139140;27;20141;-47
2023/06/02 14:19:57;;;;;;;0.20;0.20;;;;;;;;;;5138181;27;20394;-46
2023/06/02 14:22:23;;;;;;;0.20;0.20;;;;;;;;;;5138415;27;20043;-48
2023/06/02 14:24:48;;;;;;;0.20;0.20;;;;;;;;;;5138278;27;20057;-48
2023/06/02 14:27:14;;;;;;;0.20;0.20;;;;;;;;;;5139103;27;20047;-47
2023/06/02 14:29:40;;;;;;;0.20;0.20;;;;;;;;;;5137969;27;20576;-49
2023/06/02 14:32:06;;;;;;;0.20;0.20;;;;;;;;;;5137698;27;20050;-51
2023/06/02 14:34:31;;;;;;;0.20;0.20;;;;;;;;;;5138366;27;20081;-47
2023/06/02 14:36:58;;;;;;;0.20;0.20;;;;;;;;;;5137439;27;20057;-46
2023/06/02 14:39:24;;;;;;;0.20;0.20;;;;;;;;;;5138527;27;20071;-47
2023/06/02 14:41:49;;;;;;;0.20;0.20;;;;;;;;;;5137525;27;20050;-48
2023/06/02 14:44:15;;;;;;;0.20;0.20;;;;;;;;;;5115324;27;20488;-47
2023/06/02 14:46:40;;;;;;;0.20;0.20;;;;;;;;;;5097110;28;20048;-49